sensor_id;sensor_type;location;lat;lon;timestamp;temperature;humidity
77100;SHT31;66602;48.922;2.414;2023-09-12T00:02:04;19.38;82.64
77100;SHT31;66602;48.922;2.414;2023-09-12T00:04:30;19.34;82.68
77100;SHT31;66602;48.922;2.414;2023-09-12T00:06:55;19.28;83.05
77100;SHT31;66602;48.922;2.414;2023-09-12T00:09:21;19.20;83.16
77100;SHT31;66602;48.922;2.414;2023-09-12T00:11:47;19.19;83.44
77100;SHT31;66602;48.922;2.414;2023-09-12T00:14:16;19.20;83.50
77100;SHT31;66602;48.922;2.414;2023-09-12T00:16:42;19.15;83.49
77100;SHT31;66602;48.922;2.414;2023-09-12T00:19:08;19.06;83.88
77100;SHT31;66602;48.922;2.414;2023-09-12T00:21:33;19.03;84.11
77100;SHT31;66602;48.922;2.414;2023-09-12T00:23:59;19.03;84.12
77100;SHT31;66602;48.922;2.414;2023-09-12T00:26:24;19.06;84.00
77100;SHT31;66602;48.922;2.414;2023-09-12T00:28:50;19.10;83.90
77100;SHT31;66602;48.922;2.414;2023-09-12T00:31:15;19.06;83.97
77100;SHT31;66602;48.922;2.414;2023-09-12T00:33:40;19.06;84.13
77100;SHT31;66602;48.922;2.414;2023-09-12T00:36:06;19.07;84.14
77100;SHT31;66602;48.922;2.414;2023-09-12T00:38:32;19.07;84.15
77100;SHT31;66602;48.922;2.414;2023-09-12T00:40:57;19.02;84.29
77100;SHT31;66602;48.922;2.414;2023-09-12T00:43:23;18.96;84.53
77100;SHT31;66602;48.922;2.414;2023-09-12T00:45:48;18.91;84.89
77100;SHT31;66602;48.922;2.414;2023-09-12T00:48:14;18.88;85.08
77100;SHT31;66602;48.922;2.414;2023-09-12T00:50:41;18.85;85.14
77100;SHT31;66602;48.922;2.414;2023-09-12T00:53:07;18.81;85.40
77100;SHT31;66602;48.922;2.414;2023-09-12T00:55:33;18.78;85.71
77100;SHT31;66602;48.922;2.414;2023-09-12T00:58:01;18.72;85.66
77100;SHT31;66602;48.922;2.414;2023-09-12T01:00:27;18.64;86.09
77100;SHT31;66602;48.922;2.414;2023-09-12T01:02:53;18.61;86.33
77100;SHT31;66602;48.922;2.414;2023-09-12T01:05:20;18.57;86.58
77100;SHT31;66602;48.922;2.414;2023-09-12T01:07:47;18.54;86.60
77100;SHT31;66602;48.922;2.414;2023-09-12T01:10:12;18.52;86.94
77100;SHT31;66602;48.922;2.414;2023-09-12T01:12:38;18.49;87.05
77100;SHT31;66602;48.922;2.414;2023-09-12T01:15:05;18.51;87.11
77100;SHT31;66602;48.922;2.414;2023-09-12T01:17:35;18.51;87.09
77100;SHT31;66602;48.922;2.414;2023-09-12T01:20:03;18.47;87.25
77100;SHT31;66602;48.922;2.414;2023-09-12T01:22:46;18.43;87.51
77100;SHT31;66602;48.922;2.414;2023-09-12T01:27:51;18.36;87.80
77100;SHT31;66602;48.922;2.414;2023-09-12T01:30:20;18.34;88.04
77100;SHT31;66602;48.922;2.414;2023-09-12T01:32:47;18.34;88.15
77100;SHT31;66602;48.922;2.414;2023-09-12T01:35:13;18.34;88.30
77100;SHT31;66602;48.922;2.414;2023-09-12T01:37:38;18.27;88.19
77100;SHT31;66602;48.922;2.414;2023-09-12T01:40:05;18.31;88.45
77100;SHT31;66602;48.922;2.414;2023-09-12T01:42:37;18.24;88.69
77100;SHT31;66602;48.922;2.414;2023-09-12T01:45:04;18.20;89.02
77100;SHT31;66602;48.922;2.414;2023-09-12T01:47:29;18.14;89.21
77100;SHT31;66602;48.922;2.414;2023-09-12T01:49:56;18.14;89.33
77100;SHT31;66602;48.922;2.414;2023-09-12T01:52:24;18.10;89.50
77100;SHT31;66602;48.922;2.414;2023-09-12T01:54:50;18.08;89.57
77100;SHT31;66602;48.922;2.414;2023-09-12T01:57:17;18.01;89.75
77100;SHT31;66602;48.922;2.414;2023-09-12T01:59:46;18.01;90.10
77100;SHT31;66602;48.922;2.414;2023-09-12T02:02:12;18.01;90.14
77100;SHT31;66602;48.922;2.414;2023-09-12T02:04:38;18.01;90.07
77100;SHT31;66602;48.922;2.414;2023-09-12T02:07:04;17.93;90.08
77100;SHT31;66602;48.922;2.414;2023-09-12T02:09:29;17.86;90.39
77100;SHT31;66602;48.922;2.414;2023-09-12T02:11:54;17.80;90.58
77100;SHT31;66602;48.922;2.414;2023-09-12T02:14:20;17.77;91.13
77100;SHT31;66602;48.922;2.414;2023-09-12T02:16:45;17.75;91.03
77100;SHT31;66602;48.922;2.414;2023-09-12T02:19:11;17.66;91.13
77100;SHT31;66602;48.922;2.414;2023-09-12T02:21:36;17.65;91.58
77100;SHT31;66602;48.922;2.414;2023-09-12T02:24:02;17.66;91.88
77100;SHT31;66602;48.922;2.414;2023-09-12T02:26:28;17.69;92.05
77100;SHT31;66602;48.922;2.414;2023-09-12T02:28:53;17.70;91.92
77100;SHT31;66602;48.922;2.414;2023-09-12T02:31:19;17.69;91.85
77100;SHT31;66602;48.922;2.414;2023-09-12T02:33:45;17.75;92.00
77100;SHT31;66602;48.922;2.414;2023-09-12T02:36:10;17.77;91.76
77100;SHT31;66602;48.922;2.414;2023-09-12T02:38:36;17.80;91.77
77100;SHT31;66602;48.922;2.414;2023-09-12T02:41:01;17.90;91.77
77100;SHT31;66602;48.922;2.414;2023-09-12T02:43:28;17.94;91.51
77100;SHT31;66602;48.922;2.414;2023-09-12T02:45:53;18.00;91.14
77100;SHT31;66602;48.922;2.414;2023-09-12T02:48:19;18.06;90.94
77100;SHT31;66602;48.922;2.414;2023-09-12T02:50:45;18.06;90.80
77100;SHT31;66602;48.922;2.414;2023-09-12T02:53:10;18.07;90.79
77100;SHT31;66602;48.922;2.414;2023-09-12T02:55:39;18.07;90.75
77100;SHT31;66602;48.922;2.414;2023-09-12T02:58:06;18.04;90.74
77100;SHT31;66602;48.922;2.414;2023-09-12T03:00:31;17.98;90.89
77100;SHT31;66602;48.922;2.414;2023-09-12T03:02:57;17.93;91.14
77100;SHT31;66602;48.922;2.414;2023-09-12T03:05:22;17.91;91.28
77100;SHT31;66602;48.922;2.414;2023-09-12T03:07:48;17.91;91.24
77100;SHT31;66602;48.922;2.414;2023-09-12T03:10:14;17.90;91.38
77100;SHT31;66602;48.922;2.414;2023-09-12T03:12:40;17.91;91.48
77100;SHT31;66602;48.922;2.414;2023-09-12T03:15:06;17.90;91.40
77100;SHT31;66602;48.922;2.414;2023-09-12T03:17:32;17.86;91.46
77100;SHT31;66602;48.922;2.414;2023-09-12T03:19:57;17.89;91.45
77100;SHT31;66602;48.922;2.414;2023-09-12T03:22:23;17.85;91.59
77100;SHT31;66602;48.922;2.414;2023-09-12T03:24:48;17.87;91.74
77100;SHT31;66602;48.922;2.414;2023-09-12T03:27:13;17.89;91.65
77100;SHT31;66602;48.922;2.414;2023-09-12T03:29:39;17.90;91.63
77100;SHT31;66602;48.922;2.414;2023-09-12T03:32:05;17.90;91.53
77100;SHT31;66602;48.922;2.414;2023-09-12T03:34:30;17.96;91.34
77100;SHT31;66602;48.922;2.414;2023-09-12T03:36:55;17.98;91.14
77100;SHT31;66602;48.922;2.414;2023-09-12T03:39:21;18.01;91.10
77100;SHT31;66602;48.922;2.414;2023-09-12T03:41:46;18.06;91.04
77100;SHT31;66602;48.922;2.414;2023-09-12T03:44:12;18.14;90.93
77100;SHT31;66602;48.922;2.414;2023-09-12T03:46:37;18.20;90.40
77100;SHT31;66602;48.922;2.414;2023-09-12T03:49:03;18.28;90.09
77100;SHT31;66602;48.922;2.414;2023-09-12T03:51:28;18.33;90.05
77100;SHT31;66602;48.922;2.414;2023-09-12T03:53:54;18.37;89.78
77100;SHT31;66602;48.922;2.414;2023-09-12T03:56:19;18.38;89.52
77100;SHT31;66602;48.922;2.414;2023-09-12T03:58:45;18.38;89.31
77100;SHT31;66602;48.922;2.414;2023-09-12T04:01:11;18.36;89.22
77100;SHT31;66602;48.922;2.414;2023-09-12T04:03:37;18.33;89.06
77100;SHT31;66602;48.922;2.414;2023-09-12T04:06:02;18.27;88.92
77100;SHT31;66602;48.922;2.414;2023-09-12T04:08:28;18.20;89.01
77100;SHT31;66602;48.922;2.414;2023-09-12T04:10:53;18.14;89.18
77100;SHT31;66602;48.922;2.414;2023-09-12T04:13:19;18.14;89.20
77100;SHT31;66602;48.922;2.414;2023-09-12T04:15:44;18.17;89.00
77100;SHT31;66602;48.922;2.414;2023-09-12T04:18:09;18.10;88.92
77100;SHT31;66602;48.922;2.414;2023-09-12T04:20:35;18.04;89.02
77100;SHT31;66602;48.922;2.414;2023-09-12T04:23:01;18.04;89.01
77100;SHT31;66602;48.922;2.414;2023-09-12T04:25:30;18.04;89.09
77100;SHT31;66602;48.922;2.414;2023-09-12T04:27:56;18.06;89.04
77100;SHT31;66602;48.922;2.414;2023-09-12T04:30:21;18.08;89.04
77100;SHT31;66602;48.922;2.414;2023-09-12T04:32:47;18.16;88.91
77100;SHT31;66602;48.922;2.414;2023-09-12T04:35:12;18.21;88.65
77100;SHT31;66602;48.922;2.414;2023-09-12T04:37:38;18.26;88.37
77100;SHT31;66602;48.922;2.414;2023-09-12T04:40:04;18.24;88.39
77100;SHT31;66602;48.922;2.414;2023-09-12T04:42:31;18.30;88.46
77100;SHT31;66602;48.922;2.414;2023-09-12T04:44:57;18.30;88.17
77100;SHT31;66602;48.922;2.414;2023-09-12T04:47:22;18.31;88.27
77100;SHT31;66602;48.922;2.414;2023-09-12T04:49:48;18.27;88.05
77100;SHT31;66602;48.922;2.414;2023-09-12T04:52:14;18.20;88.31
77100;SHT31;66602;48.922;2.414;2023-09-12T04:54:39;18.21;88.28
77100;SHT31;66602;48.922;2.414;2023-09-12T04:57:05;18.13;88.46
77100;SHT31;66602;48.922;2.414;2023-09-12T04:59:30;18.06;88.60
77100;SHT31;66602;48.922;2.414;2023-09-12T05:01:56;18.03;88.87
77100;SHT31;66602;48.922;2.414;2023-09-12T05:04:21;18.04;89.00
77100;SHT31;66602;48.922;2.414;2023-09-12T05:06:47;18.04;88.83
77100;SHT31;66602;48.922;2.414;2023-09-12T05:09:13;18.06;89.06
77100;SHT31;66602;48.922;2.414;2023-09-12T05:11:38;18.07;88.86
77100;SHT31;66602;48.922;2.414;2023-09-12T05:14:04;18.10;88.79
77100;SHT31;66602;48.922;2.414;2023-09-12T05:16:30;18.06;88.61
77100;SHT31;66602;48.922;2.414;2023-09-12T05:18:55;18.04;88.72
77100;SHT31;66602;48.922;2.414;2023-09-12T05:21:21;18.01;88.83
77100;SHT31;66602;48.922;2.414;2023-09-12T05:23:46;17.97;89.00
77100;SHT31;66602;48.922;2.414;2023-09-12T05:26:12;17.94;89.16
77100;SHT31;66602;48.922;2.414;2023-09-12T05:28:37;17.90;89.12
77100;SHT31;66602;48.922;2.414;2023-09-12T05:31:03;17.85;89.19
77100;SHT31;66602;48.922;2.414;2023-09-12T05:33:29;17.82;89.36
77100;SHT31;66602;48.922;2.414;2023-09-12T05:35:54;17.83;89.47
77100;SHT31;66602;48.922;2.414;2023-09-12T05:38:20;17.83;89.59
77100;SHT31;66602;48.922;2.414;2023-09-12T05:40:45;17.82;89.59
77100;SHT31;66602;48.922;2.414;2023-09-12T05:43:11;17.85;89.57
77100;SHT31;66602;48.922;2.414;2023-09-12T05:45:37;17.94;89.42
77100;SHT31;66602;48.922;2.414;2023-09-12T05:48:03;18.01;89.11
77100;SHT31;66602;48.922;2.414;2023-09-12T05:50:29;18.04;88.96
77100;SHT31;66602;48.922;2.414;2023-09-12T05:52:55;18.10;88.81
77100;SHT31;66602;48.922;2.414;2023-09-12T05:55:20;18.14;88.85
77100;SHT31;66602;48.922;2.414;2023-09-12T05:57:46;18.17;88.42
77100;SHT31;66602;48.922;2.414;2023-09-12T06:00:13;18.17;88.49
77100;SHT31;66602;48.922;2.414;2023-09-12T06:02:40;18.14;88.54
77100;SHT31;66602;48.922;2.414;2023-09-12T06:05:07;18.16;88.45
77100;SHT31;66602;48.922;2.414;2023-09-12T06:07:33;18.16;88.42
77100;SHT31;66602;48.922;2.414;2023-09-12T06:09:58;18.26;88.29
77100;SHT31;66602;48.922;2.414;2023-09-12T06:12:24;18.31;87.94
77100;SHT31;66602;48.922;2.414;2023-09-12T06:14:50;18.34;87.71
77100;SHT31;66602;48.922;2.414;2023-09-12T06:17:16;18.41;87.64
77100;SHT31;66602;48.922;2.414;2023-09-12T06:19:41;18.52;87.51
77100;SHT31;66602;48.922;2.414;2023-09-12T06:22:06;18.72;87.18
77100;SHT31;66602;48.922;2.414;2023-09-12T06:24:32;18.76;86.29
77100;SHT31;66602;48.922;2.414;2023-09-12T06:26:57;18.73;86.42
77100;SHT31;66602;48.922;2.414;2023-09-12T06:29:23;18.75;86.49
77100;SHT31;66602;48.922;2.414;2023-09-12T06:31:48;18.84;86.66
77100;SHT31;66602;48.922;2.414;2023-09-12T06:34:14;18.91;86.07
77100;SHT31;66602;48.922;2.414;2023-09-12T06:36:40;18.99;86.02
77100;SHT31;66602;48.922;2.414;2023-09-12T06:39:10;19.02;85.48
77100;SHT31;66602;48.922;2.414;2023-09-12T06:41:35;19.07;85.11
77100;SHT31;66602;48.922;2.414;2023-09-12T06:44:01;19.23;84.80
77100;SHT31;66602;48.922;2.414;2023-09-12T06:46:28;19.34;84.37
77100;SHT31;66602;48.922;2.414;2023-09-12T06:48:53;19.54;83.99
77100;SHT31;66602;48.922;2.414;2023-09-12T06:51:23;19.58;82.99
77100;SHT31;66602;48.922;2.414;2023-09-12T06:53:49;19.56;82.67
77100;SHT31;66602;48.922;2.414;2023-09-12T06:56:15;19.47;82.85
77100;SHT31;66602;48.922;2.414;2023-09-12T06:58:41;19.47;83.23
77100;SHT31;66602;48.922;2.414;2023-09-12T07:01:07;19.53;82.69
77100;SHT31;66602;48.922;2.414;2023-09-12T07:03:33;19.73;82.35
77100;SHT31;66602;48.922;2.414;2023-09-12T07:05:59;20.09;81.30
77100;SHT31;66602;48.922;2.414;2023-09-12T07:08:25;20.49;79.58
77100;SHT31;66602;48.922;2.414;2023-09-12T07:10:51;20.59;79.19
77100;SHT31;66602;48.922;2.414;2023-09-12T07:13:21;20.52;79.00
77100;SHT31;66602;48.922;2.414;2023-09-12T07:15:46;20.30;79.53
77100;SHT31;66602;48.922;2.414;2023-09-12T07:18:12;20.16;80.36
77100;SHT31;66602;48.922;2.414;2023-09-12T07:20:40;19.91;80.75
77100;SHT31;66602;48.922;2.414;2023-09-12T07:23:06;19.74;81.61
77100;SHT31;66602;48.922;2.414;2023-09-12T07:25:38;19.61;82.06
77100;SHT31;66602;48.922;2.414;2023-09-12T07:28:05;19.57;82.45
77100;SHT31;66602;48.922;2.414;2023-09-12T07:30:30;19.57;82.54
77100;SHT31;66602;48.922;2.414;2023-09-12T07:32:56;19.57;82.00
77100;SHT31;66602;48.922;2.414;2023-09-12T07:35:21;19.51;82.22
77100;SHT31;66602;48.922;2.414;2023-09-12T07:37:49;19.54;82.62
77100;SHT31;66602;48.922;2.414;2023-09-12T07:40:15;19.63;82.22
77100;SHT31;66602;48.922;2.414;2023-09-12T07:42:40;19.70;81.48
77100;SHT31;66602;48.922;2.414;2023-09-12T07:45:07;19.91;81.04
77100;SHT31;66602;48.922;2.414;2023-09-12T07:47:32;20.06;79.96
77100;SHT31;66602;48.922;2.414;2023-09-12T07:49:58;20.16;80.00
77100;SHT31;66602;48.922;2.414;2023-09-12T07:52:26;20.16;79.46
77100;SHT31;66602;48.922;2.414;2023-09-12T07:54:52;20.15;79.89
77100;SHT31;66602;48.922;2.414;2023-09-12T07:57:23;20.16;79.58
77100;SHT31;66602;48.922;2.414;2023-09-12T07:59:48;20.09;79.49
77100;SHT31;66602;48.922;2.414;2023-09-12T08:02:14;20.08;80.11
77100;SHT31;66602;48.922;2.414;2023-09-12T08:04:39;19.96;79.67
77100;SHT31;66602;48.922;2.414;2023-09-12T08:07:05;19.99;80.04
77100;SHT31;66602;48.922;2.414;2023-09-12T08:09:54;20.01;79.99
77100;SHT31;66602;48.922;2.414;2023-09-12T08:12:21;20.08;79.80
77100;SHT31;66602;48.922;2.414;2023-09-12T08:14:47;20.15;80.13
77100;SHT31;66602;48.922;2.414;2023-09-12T08:17:13;20.26;80.00
77100;SHT31;66602;48.922;2.414;2023-09-12T08:19:39;20.30;79.28
77100;SHT31;66602;48.922;2.414;2023-09-12T08:22:06;20.29;78.99
77100;SHT31;66602;48.922;2.414;2023-09-12T08:24:31;20.24;79.52
77100;SHT31;66602;48.922;2.414;2023-09-12T08:26:57;20.29;79.33
77100;SHT31;66602;48.922;2.414;2023-09-12T08:29:22;20.37;79.11
77100;SHT31;66602;48.922;2.414;2023-09-12T08:31:48;20.52;78.66
77100;SHT31;66602;48.922;2.414;2023-09-12T08:34:13;20.72;78.08
77100;SHT31;66602;48.922;2.414;2023-09-12T08:36:39;20.83;77.35
77100;SHT31;66602;48.922;2.414;2023-09-12T08:39:05;20.88;77.31
77100;SHT31;66602;48.922;2.414;2023-09-12T08:41:33;21.03;77.60
77100;SHT31;66602;48.922;2.414;2023-09-12T08:44:01;21.12;76.80
77100;SHT31;66602;48.922;2.414;2023-09-12T08:46:26;21.27;76.45
77100;SHT31;66602;48.922;2.414;2023-09-12T08:48:55;21.18;76.19
77100;SHT31;66602;48.922;2.414;2023-09-12T08:51:22;21.07;76.46
77100;SHT31;66602;48.922;2.414;2023-09-12T08:53:50;20.93;76.83
77100;SHT31;66602;48.922;2.414;2023-09-12T08:56:16;20.93;76.98
77100;SHT31;66602;48.922;2.414;2023-09-12T08:58:43;20.97;76.62
77100;SHT31;66602;48.922;2.414;2023-09-12T09:01:09;20.98;77.15
77100;SHT31;66602;48.922;2.414;2023-09-12T09:03:37;21.00;77.32
77100;SHT31;66602;48.922;2.414;2023-09-12T09:06:04;21.04;77.20
77100;SHT31;66602;48.922;2.414;2023-09-12T09:08:31;20.98;77.27
77100;SHT31;66602;48.922;2.414;2023-09-12T09:10:57;20.73;77.43
77100;SHT31;66602;48.922;2.414;2023-09-12T09:13:23;20.52;78.48
77100;SHT31;66602;48.922;2.414;2023-09-12T09:15:49;20.39;78.79
77100;SHT31;66602;48.922;2.414;2023-09-12T09:18:14;20.36;79.30
77100;SHT31;66602;48.922;2.414;2023-09-12T09:20:40;20.43;78.93
77100;SHT31;66602;48.922;2.414;2023-09-12T09:23:08;20.45;78.64
77100;SHT31;66602;48.922;2.414;2023-09-12T09:25:40;20.35;78.71
77100;SHT31;66602;48.922;2.414;2023-09-12T09:28:26;20.25;79.57
77100;SHT31;66602;48.922;2.414;2023-09-12T09:30:52;20.22;79.90
77100;SHT31;66602;48.922;2.414;2023-09-12T09:33:20;20.19;79.76
77100;SHT31;66602;48.922;2.414;2023-09-12T09:35:46;20.11;79.86
77100;SHT31;66602;48.922;2.414;2023-09-12T09:38:12;20.06;80.38
77100;SHT31;66602;48.922;2.414;2023-09-12T09:40:44;20.08;80.03
77100;SHT31;66602;48.922;2.414;2023-09-12T09:43:10;20.06;79.66
77100;SHT31;66602;48.922;2.414;2023-09-12T09:45:43;20.01;79.87
77100;SHT31;66602;48.922;2.414;2023-09-12T09:48:25;19.94;80.13
77100;SHT31;66602;48.922;2.414;2023-09-12T09:51:03;19.82;80.99
77100;SHT31;66602;48.922;2.414;2023-09-12T09:53:30;19.71;81.26
77100;SHT31;66602;48.922;2.414;2023-09-12T09:58:41;19.37;82.95
77100;SHT31;66602;48.922;2.414;2023-09-12T10:01:07;19.17;83.89
77100;SHT31;66602;48.922;2.414;2023-09-12T10:03:36;18.98;85.59
77100;SHT31;66602;48.922;2.414;2023-09-12T10:06:04;18.72;90.89
77100;SHT31;66602;48.922;2.414;2023-09-12T10:08:31;18.55;91.50
77100;SHT31;66602;48.922;2.414;2023-09-12T10:10:57;18.34;93.13
77100;SHT31;66602;48.922;2.414;2023-09-12T10:13:26;18.20;93.59
77100;SHT31;66602;48.922;2.414;2023-09-12T10:15:58;18.11;94.01
77100;SHT31;66602;48.922;2.414;2023-09-12T10:18:25;18.03;94.56
77100;SHT31;66602;48.922;2.414;2023-09-12T10:21:04;18.03;94.88
77100;SHT31;66602;48.922;2.414;2023-09-12T10:26:03;17.98;96.14
77100;SHT31;66602;48.922;2.414;2023-09-12T10:28:29;17.90;96.36
77100;SHT31;66602;48.922;2.414;2023-09-12T10:30:57;17.90;96.60
77100;SHT31;66602;48.922;2.414;2023-09-12T10:33:23;17.94;96.77
77100;SHT31;66602;48.922;2.414;2023-09-12T10:35:51;17.97;96.96
77100;SHT31;66602;48.922;2.414;2023-09-12T10:38:18;18.01;97.06
77100;SHT31;66602;48.922;2.414;2023-09-12T10:40:46;17.98;97.08
77100;SHT31;66602;48.922;2.414;2023-09-12T10:43:13;18.04;97.16
77100;SHT31;66602;48.922;2.414;2023-09-12T10:45:40;18.13;97.16
77100;SHT31;66602;48.922;2.414;2023-09-12T10:48:06;18.14;97.15
77100;SHT31;66602;48.922;2.414;2023-09-12T10:50:34;18.16;97.08
77100;SHT31;66602;48.922;2.414;2023-09-12T10:53:11;18.17;97.18
77100;SHT31;66602;48.922;2.414;2023-09-12T10:55:37;18.21;97.37
77100;SHT31;66602;48.922;2.414;2023-09-12T10:58:08;18.27;97.31
77100;SHT31;66602;48.922;2.414;2023-09-12T11:00:33;18.17;97.06
77100;SHT31;66602;48.922;2.414;2023-09-12T11:05:55;18.17;97.25
77100;SHT31;66602;48.922;2.414;2023-09-12T11:08:21;18.14;97.01
77100;SHT31;66602;48.922;2.414;2023-09-12T11:11:16;18.07;96.97
77100;SHT31;66602;48.922;2.414;2023-09-12T11:13:43;18.04;97.06
77100;SHT31;66602;48.922;2.414;2023-09-12T11:16:15;18.06;97.08
77100;SHT31;66602;48.922;2.414;2023-09-12T11:19:12;18.14;97.24
77100;SHT31;66602;48.922;2.414;2023-09-12T11:21:48;18.20;97.15
77100;SHT31;66602;48.922;2.414;2023-09-12T11:24:15;18.20;97.10
77100;SHT31;66602;48.922;2.414;2023-09-12T11:27:02;18.30;97.25
77100;SHT31;66602;48.922;2.414;2023-09-12T11:29:40;18.28;97.05
77100;SHT31;66602;48.922;2.414;2023-09-12T11:32:06;18.30;97.13
77100;SHT31;66602;48.922;2.414;2023-09-12T11:34:41;18.31;96.97
77100;SHT31;66602;48.922;2.414;2023-09-12T11:37:07;18.38;96.98
77100;SHT31;66602;48.922;2.414;2023-09-12T11:39:35;18.52;97.21
77100;SHT31;66602;48.922;2.414;2023-09-12T11:42:03;18.51;96.84
77100;SHT31;66602;48.922;2.414;2023-09-12T11:44:29;18.57;96.78
77100;SHT31;66602;48.922;2.414;2023-09-12T11:46:57;18.65;96.54
77100;SHT31;66602;48.922;2.414;2023-09-12T11:49:35;18.54;95.93
77100;SHT31;66602;48.922;2.414;2023-09-12T11:52:01;18.57;96.00
77100;SHT31;66602;48.922;2.414;2023-09-12T11:54:29;18.61;96.17
77100;SHT31;66602;48.922;2.414;2023-09-12T11:56:57;18.68;96.43
77100;SHT31;66602;48.922;2.414;2023-09-12T11:59:28;18.69;96.17
77100;SHT31;66602;48.922;2.414;2023-09-12T12:01:54;18.81;96.37
77100;SHT31;66602;48.922;2.414;2023-09-12T12:04:21;18.84;96.22
77100;SHT31;66602;48.922;2.414;2023-09-12T12:06:48;18.72;95.52
77100;SHT31;66602;48.922;2.414;2023-09-12T12:09:13;18.64;95.81
77100;SHT31;66602;48.922;2.414;2023-09-12T12:11:41;18.68;96.18
77100;SHT31;66602;48.922;2.414;2023-09-12T12:14:15;18.72;96.15
77100;SHT31;66602;48.922;2.414;2023-09-12T12:16:46;18.66;95.79
77100;SHT31;66602;48.922;2.414;2023-09-12T12:19:13;18.69;95.93
77100;SHT31;66602;48.922;2.414;2023-09-12T12:21:40;18.73;95.83
77100;SHT31;66602;48.922;2.414;2023-09-12T12:24:09;18.78;95.39
77100;SHT31;66602;48.922;2.414;2023-09-12T12:26:35;18.92;95.41
77100;SHT31;66602;48.922;2.414;2023-09-12T12:29:00;19.03;94.75
77100;SHT31;66602;48.922;2.414;2023-09-12T12:31:27;19.22;94.70
77100;SHT31;66602;48.922;2.414;2023-09-12T12:33:53;19.40;93.87
77100;SHT31;66602;48.922;2.414;2023-09-12T12:36:18;19.64;93.69
77100;SHT31;66602;48.922;2.414;2023-09-12T12:38:47;19.92;93.15
77100;SHT31;66602;48.922;2.414;2023-09-12T12:41:21;20.05;92.07
77100;SHT31;66602;48.922;2.414;2023-09-12T12:43:49;20.08;91.31
77100;SHT31;66602;48.922;2.414;2023-09-12T12:46:17;20.08;90.87
77100;SHT31;66602;48.922;2.414;2023-09-12T12:48:45;20.12;91.18
77100;SHT31;66602;48.922;2.414;2023-09-12T12:53:50;20.25;90.77
77100;SHT31;66602;48.922;2.414;2023-09-12T12:56:18;20.40;90.45
77100;SHT31;66602;48.922;2.414;2023-09-12T12:58:51;20.56;89.88
77100;SHT31;66602;48.922;2.414;2023-09-12T13:01:18;20.73;89.52
77100;SHT31;66602;48.922;2.414;2023-09-12T13:03:44;20.64;88.36
77100;SHT31;66602;48.922;2.414;2023-09-12T13:06:10;20.79;89.70
77100;SHT31;66602;48.922;2.414;2023-09-12T13:08:40;20.76;88.39
77100;SHT31;66602;48.922;2.414;2023-09-12T13:11:07;20.66;87.19
77100;SHT31;66602;48.922;2.414;2023-09-12T13:13:32;20.66;87.38
77100;SHT31;66602;48.922;2.414;2023-09-12T13:15:58;20.80;87.42
77100;SHT31;66602;48.922;2.414;2023-09-12T13:18:24;21.12;86.23
77100;SHT31;66602;48.922;2.414;2023-09-12T13:20:50;21.05;85.60
77100;SHT31;66602;48.922;2.414;2023-09-12T13:23:15;21.00;85.83
77100;SHT31;66602;48.922;2.414;2023-09-12T13:25:41;20.86;85.33
77100;SHT31;66602;48.922;2.414;2023-09-12T13:28:06;20.53;87.07
77100;SHT31;66602;48.922;2.414;2023-09-12T13:30:32;20.32;88.15
77100;SHT31;66602;48.922;2.414;2023-09-12T13:32:57;20.21;88.91
77100;SHT31;66602;48.922;2.414;2023-09-12T13:35:22;20.08;89.10
77100;SHT31;66602;48.922;2.414;2023-09-12T13:37:48;19.89;90.02
77100;SHT31;66602;48.922;2.414;2023-09-12T13:40:13;19.79;90.07
77100;SHT31;66602;48.922;2.414;2023-09-12T13:42:39;19.67;90.00
77100;SHT31;66602;48.922;2.414;2023-09-12T13:45:05;19.64;90.12
77100;SHT31;66602;48.922;2.414;2023-09-12T13:47:31;19.65;90.41
77100;SHT31;66602;48.922;2.414;2023-09-12T13:49:57;19.74;90.25
77100;SHT31;66602;48.922;2.414;2023-09-12T13:52:26;19.81;90.70
77100;SHT31;66602;48.922;2.414;2023-09-12T13:54:52;19.94;90.83
77100;SHT31;66602;48.922;2.414;2023-09-12T13:57:18;19.99;89.79
77100;SHT31;66602;48.922;2.414;2023-09-12T13:59:44;20.16;88.89
77100;SHT31;66602;48.922;2.414;2023-09-12T14:02:09;20.35;88.90
77100;SHT31;66602;48.922;2.414;2023-09-12T14:04:35;20.59;88.12
77100;SHT31;66602;48.922;2.414;2023-09-12T14:07:00;20.72;87.48
77100;SHT31;66602;48.922;2.414;2023-09-12T14:09:27;20.86;87.23
77100;SHT31;66602;48.922;2.414;2023-09-12T14:11:54;20.88;86.44
77100;SHT31;66602;48.922;2.414;2023-09-12T14:14:19;20.77;86.77
77100;SHT31;66602;48.922;2.414;2023-09-12T14:16:45;20.77;86.86
77100;SHT31;66602;48.922;2.414;2023-09-12T14:19:10;20.79;86.84
77100;SHT31;66602;48.922;2.414;2023-09-12T14:21:36;20.90;86.63
77100;SHT31;66602;48.922;2.414;2023-09-12T14:24:04;20.80;86.86
77100;SHT31;66602;48.922;2.414;2023-09-12T14:26:29;20.63;87.50
77100;SHT31;66602;48.922;2.414;2023-09-12T14:28:55;20.53;88.64
77100;SHT31;66602;48.922;2.414;2023-09-12T14:31:22;20.47;88.99
77100;SHT31;66602;48.922;2.414;2023-09-12T14:33:48;20.32;88.44
77100;SHT31;66602;48.922;2.414;2023-09-12T14:36:14;20.24;89.49
77100;SHT31;66602;48.922;2.414;2023-09-12T14:38:39;20.14;90.13
77100;SHT31;66602;48.922;2.414;2023-09-12T14:41:05;20.06;90.21
77100;SHT31;66602;48.922;2.414;2023-09-12T14:43:30;20.18;90.69
77100;SHT31;66602;48.922;2.414;2023-09-12T14:45:56;20.37;91.40
77100;SHT31;66602;48.922;2.414;2023-09-12T14:48:23;20.45;89.65
77100;SHT31;66602;48.922;2.414;2023-09-12T14:50:49;20.39;89.51
77100;SHT31;66602;48.922;2.414;2023-09-12T14:53:15;20.36;89.51
77100;SHT31;66602;48.922;2.414;2023-09-12T14:55:44;20.30;90.07
77100;SHT31;66602;48.922;2.414;2023-09-12T14:58:09;20.19;89.89
77100;SHT31;66602;48.922;2.414;2023-09-12T15:00:35;20.11;90.60
77100;SHT31;66602;48.922;2.414;2023-09-12T15:03:01;20.04;91.09
77100;SHT31;66602;48.922;2.414;2023-09-12T15:05:27;19.91;90.88
77100;SHT31;66602;48.922;2.414;2023-09-12T15:07:52;19.78;91.72
77100;SHT31;66602;48.922;2.414;2023-09-12T15:10:18;19.73;92.28
77100;SHT31;66602;48.922;2.414;2023-09-12T15:12:44;19.71;92.92
77100;SHT31;66602;48.922;2.414;2023-09-12T15:15:10;19.70;92.55
77100;SHT31;66602;48.922;2.414;2023-09-12T15:17:36;19.73;92.64
77100;SHT31;66602;48.922;2.414;2023-09-12T15:20:01;19.77;92.95
77100;SHT31;66602;48.922;2.414;2023-09-12T15:22:30;19.77;92.61
77100;SHT31;66602;48.922;2.414;2023-09-12T15:24:56;19.78;92.52
77100;SHT31;66602;48.922;2.414;2023-09-12T15:27:22;19.78;92.43
77100;SHT31;66602;48.922;2.414;2023-09-12T15:29:47;19.82;92.75
77100;SHT31;66602;48.922;2.414;2023-09-12T15:32:12;19.75;92.35
77100;SHT31;66602;48.922;2.414;2023-09-12T15:34:38;19.75;92.97
77100;SHT31;66602;48.922;2.414;2023-09-12T15:37:08;19.70;92.22
77100;SHT31;66602;48.922;2.414;2023-09-12T15:39:34;19.50;92.01
77100;SHT31;66602;48.922;2.414;2023-09-12T15:42:00;19.46;92.88